sensor_id;sensor_type;location;lat;lon;timestamp;pressure;altitude;pressure_sealevel;temperature;humidity
74403;BME280;62837;51.082;13.744;2023-01-15T00:00:37;98977.95;;;8.95;69.09
74403;BME280;62837;51.082;13.744;2023-01-15T00:03:08;98977.55;;;8.96;69.07
74403;BME280;62837;51.082;13.744;2023-01-15T00:05:39;98978.38;;;8.97;69.12
74403;BME280;62837;51.082;13.744;2023-01-15T00:08:09;98977.38;;;8.97;69.21
74403;BME280;62837;51.082;13.744;2023-01-15T00:10:40;98974.41;;;8.97;69.05
74403;BME280;62837;51.082;13.744;2023-01-15T00:13:11;98974.41;;;8.98;69.26
74403;BME280;62837;51.082;13.744;2023-01-15T00:15:42;98968.55;;;8.98;69.38
74403;BME280;62837;51.082;13.744;2023-01-15T00:18:13;98967.28;;;8.99;69.42
74403;BME280;62837;51.082;13.744;2023-01-15T00:20:43;98960.23;;;9.03;69.67
74403;BME280;62837;51.082;13.744;2023-01-15T00:23:14;98949.75;;;9.06;69.76
74403;BME280;62837;51.082;13.744;2023-01-15T00:26:07;98940.98;;;9.12;69.90
74403;BME280;62837;51.082;13.744;2023-01-15T00:28:56;98942.20;;;9.17;69.88
74403;BME280;62837;51.082;13.744;2023-01-15T00:31:27;98949.75;;;9.21;69.78
74403;BME280;62837;51.082;13.744;2023-01-15T00:34:00;98947.37;;;9.25;70.14
74403;BME280;62837;51.082;13.744;2023-01-15T00:36:30;98941.30;;;9.29;70.09
74403;BME280;62837;51.082;13.744;2023-01-15T00:39:03;98933.85;;;9.35;70.24
74403;BME280;62837;51.082;13.744;2023-01-15T00:41:34;98919.36;;;9.42;70.28
74403;BME280;62837;51.082;13.744;2023-01-15T00:44:05;98907.77;;;9.49;69.88
74403;BME280;62837;51.082;13.744;2023-01-15T00:46:36;98907.97;;;9.58;70.04
74403;BME280;62837;51.082;13.744;2023-01-15T00:49:07;98901.26;;;9.60;69.57
74403;BME280;62837;51.082;13.744;2023-01-15T00:51:38;98898.86;;;9.65;69.01
74403;BME280;62837;51.082;13.744;2023-01-15T00:54:09;98899.63;;;9.64;68.72
74403;BME280;62837;51.082;13.744;2023-01-15T00:56:40;98896.13;;;9.62;68.82
74403;BME280;62837;51.082;13.744;2023-01-15T00:59:11;98891.33;;;9.58;68.64
74403;BME280;62837;51.082;13.744;2023-01-15T01:01:42;98885.88;;;9.56;68.77
74403;BME280;62837;51.082;13.744;2023-01-15T01:04:13;98884.08;;;9.55;68.77
74403;BME280;62837;51.082;13.744;2023-01-15T01:06:44;98883.64;;;9.53;68.58
74403;BME280;62837;51.082;13.744;2023-01-15T01:09:15;98883.92;;;9.53;69.04
74403;BME280;62837;51.082;13.744;2023-01-15T01:11:47;98880.41;;;9.53;69.10
74403;BME280;62837;51.082;13.744;2023-01-15T01:14:19;98875.20;;;9.54;69.02
74403;BME280;62837;51.082;13.744;2023-01-15T01:16:50;98866.69;;;9.54;69.00
74403;BME280;62837;51.082;13.744;2023-01-15T01:19:22;98859.10;;;9.54;69.13
74403;BME280;62837;51.082;13.744;2023-01-15T01:21:53;98855.38;;;9.55;68.94
74403;BME280;62837;51.082;13.744;2023-01-15T01:24:25;98851.31;;;9.55;69.09
74403;BME280;62837;51.082;13.744;2023-01-15T01:26:56;98856.77;;;9.57;69.16
74403;BME280;62837;51.082;13.744;2023-01-15T01:29:26;98853.73;;;9.59;69.21
74403;BME280;62837;51.082;13.744;2023-01-15T01:31:57;98854.50;;;9.59;69.03
74403;BME280;62837;51.082;13.744;2023-01-15T01:34:28;98853.52;;;9.61;69.09
74403;BME280;62837;51.082;13.744;2023-01-15T01:36:59;98850.80;;;9.61;69.00
74403;BME280;62837;51.082;13.744;2023-01-15T01:39:29;98839.86;;;9.62;69.03
74403;BME280;62837;51.082;13.744;2023-01-15T01:42:00;98838.43;;;9.63;69.16
74403;BME280;62837;51.082;13.744;2023-01-15T01:44:59;98839.41;;;9.65;69.19
74403;BME280;62837;51.082;13.744;2023-01-15T01:47:31;98837.88;;;9.65;69.25
74403;BME280;62837;51.082;13.744;2023-01-15T01:50:05;98839.46;;;9.65;69.07
74403;BME280;62837;51.082;13.744;2023-01-15T01:52:41;98836.89;;;9.65;69.11
74403;BME280;62837;51.082;13.744;2023-01-15T01:55:16;98838.26;;;9.65;69.14
74403;BME280;62837;51.082;13.744;2023-01-15T01:57:51;98841.55;;;9.64;69.25
74403;BME280;62837;51.082;13.744;2023-01-15T02:00:22;98835.97;;;9.62;69.25
74403;BME280;62837;51.082;13.744;2023-01-15T02:02:54;98831.76;;;9.61;69.57
74403;BME280;62837;51.082;13.744;2023-01-15T02:05:30;98829.08;;;9.61;69.53
74403;BME280;62837;51.082;13.744;2023-01-15T02:08:01;98821.48;;;9.62;69.43
74403;BME280;62837;51.082;13.744;2023-01-15T02:10:32;98819.69;;;9.61;69.37
74403;BME280;62837;51.082;13.744;2023-01-15T02:13:06;98818.50;;;9.60;69.37
74403;BME280;62837;51.082;13.744;2023-01-15T02:15:41;98819.10;;;9.59;69.28
74403;BME280;62837;51.082;13.744;2023-01-15T02:18:21;98818.41;;;9.57;69.19
74403;BME280;62837;51.082;13.744;2023-01-15T02:20:56;98809.55;;;9.55;69.47
74403;BME280;62837;51.082;13.744;2023-01-15T02:23:49;98806.09;;;9.54;69.47
74403;BME280;62837;51.082;13.744;2023-01-15T02:29:33;98796.66;;;9.50;69.38
74403;BME280;62837;51.082;13.744;2023-01-15T02:32:12;98804.39;;;9.50;69.48
74403;BME280;62837;51.082;13.744;2023-01-15T02:34:49;98807.64;;;9.49;69.73
74403;BME280;62837;51.082;13.744;2023-01-15T02:37:26;98802.31;;;9.48;69.67
74403;BME280;62837;51.082;13.744;2023-01-15T02:40:00;98798.27;;;9.46;69.87
74403;BME280;62837;51.082;13.744;2023-01-15T02:42:34;98799.21;;;9.46;69.89
74403;BME280;62837;51.082;13.744;2023-01-15T02:45:09;98796.49;;;9.45;69.91
74403;BME280;62837;51.082;13.744;2023-01-15T02:47:43;98791.66;;;9.45;70.01
74403;BME280;62837;51.082;13.744;2023-01-15T02:50:18;98786.84;;;9.45;70.10
74403;BME280;62837;51.082;13.744;2023-01-15T02:52:55;98782.61;;;9.45;70.24
74403;BME280;62837;51.082;13.744;2023-01-15T02:55:28;98769.64;;;9.45;70.05
74403;BME280;62837;51.082;13.744;2023-01-15T02:58:02;98764.05;;;9.45;70.37
74403;BME280;62837;51.082;13.744;2023-01-15T03:00:37;98755.05;;;9.45;70.57
74403;BME280;62837;51.082;13.744;2023-01-15T03:03:15;98756.19;;;9.46;70.72
74403;BME280;62837;51.082;13.744;2023-01-15T03:05:53;98755.50;;;9.48;70.80
74403;BME280;62837;51.082;13.744;2023-01-15T03:08:26;98759.07;;;9.48;70.81
74403;BME280;62837;51.082;13.744;2023-01-15T03:11:04;98753.85;;;9.50;70.84
74403;BME280;62837;51.082;13.744;2023-01-15T03:13:45;98750.09;;;9.51;70.97
74403;BME280;62837;51.082;13.744;2023-01-15T03:16:24;98745.73;;;9.53;70.82
74403;BME280;62837;51.082;13.744;2023-01-15T03:19:21;98746.55;;;9.56;70.87
74403;BME280;62837;51.082;13.744;2023-01-15T03:21:57;98739.71;;;9.57;70.96
74403;BME280;62837;51.082;13.744;2023-01-15T03:24:31;98738.98;;;9.58;71.09
74403;BME280;62837;51.082;13.744;2023-01-15T03:27:02;98733.88;;;9.59;71.24
74403;BME280;62837;51.082;13.744;2023-01-15T03:29:36;98725.50;;;9.61;71.08
74403;BME280;62837;51.082;13.744;2023-01-15T03:32:07;98725.05;;;9.62;71.14
74403;BME280;62837;51.082;13.744;2023-01-15T03:34:43;98724.15;;;9.64;71.03
74403;BME280;62837;51.082;13.744;2023-01-15T03:37:19;98716.84;;;9.66;71.07
74403;BME280;62837;51.082;13.744;2023-01-15T03:39:53;98715.11;;;9.67;70.94
74403;BME280;62837;51.082;13.744;2023-01-15T03:42:44;98706.20;;;9.68;71.12
74403;BME280;62837;51.082;13.744;2023-01-15T03:45:40;98696.70;;;9.70;71.15
74403;BME280;62837;51.082;13.744;2023-01-15T03:48:19;98693.91;;;9.72;71.47
74403;BME280;62837;51.082;13.744;2023-01-15T03:50:59;98700.08;;;9.75;71.51
74403;BME280;62837;51.082;13.744;2023-01-15T03:53:36;98694.92;;;9.78;71.57
74403;BME280;62837;51.082;13.744;2023-01-15T03:56:15;98696.79;;;9.82;71.90
74403;BME280;62837;51.082;13.744;2023-01-15T03:58:54;98696.11;;;9.87;71.91
74403;BME280;62837;51.082;13.744;2023-01-15T04:01:35;98693.04;;;9.92;71.92
74403;BME280;62837;51.082;13.744;2023-01-15T04:04:09;98691.61;;;9.96;72.39
74403;BME280;62837;51.082;13.744;2023-01-15T04:06:41;98691.09;;;10.02;72.52
74403;BME280;62837;51.082;13.744;2023-01-15T04:09:13;98690.25;;;10.06;72.34
74403;BME280;62837;51.082;13.744;2023-01-15T04:11:44;98691.34;;;10.11;72.07
74403;BME280;62837;51.082;13.744;2023-01-15T04:14:15;98694.16;;;10.13;72.03
74403;BME280;62837;51.082;13.744;2023-01-15T04:16:50;98696.05;;;10.17;71.84
74403;BME280;62837;51.082;13.744;2023-01-15T04:19:25;98694.06;;;10.19;71.71
74403;BME280;62837;51.082;13.744;2023-01-15T04:22:05;98698.09;;;10.20;71.65
74403;BME280;62837;51.082;13.744;2023-01-15T04:24:36;98693.42;;;10.23;71.52
74403;BME280;62837;51.082;13.744;2023-01-15T04:27:06;98696.44;;;10.24;71.70
74403;BME280;62837;51.082;13.744;2023-01-15T04:29:37;98689.24;;;10.24;71.79
74403;BME280;62837;51.082;13.744;2023-01-15T04:32:08;98681.70;;;10.26;71.86
74403;BME280;62837;51.082;13.744;2023-01-15T04:34:39;98676.56;;;10.26;71.91
74403;BME280;62837;51.082;13.744;2023-01-15T04:37:09;98675.38;;;10.26;71.98
74403;BME280;62837;51.082;13.744;2023-01-15T04:39:40;98672.40;;;10.26;72.05
74403;BME280;62837;51.082;13.744;2023-01-15T04:42:12;98671.70;;;10.25;72.08
74403;BME280;62837;51.082;13.744;2023-01-15T04:45:03;98669.36;;;10.24;72.47
74403;BME280;62837;51.082;13.744;2023-01-15T04:47:34;98658.17;;;10.22;72.40
74403;BME280;62837;51.082;13.744;2023-01-15T04:50:06;98653.33;;;10.20;72.19
74403;BME280;62837;51.082;13.744;2023-01-15T04:52:37;98650.78;;;10.17;72.16
74403;BME280;62837;51.082;13.744;2023-01-15T04:55:09;98653.02;;;10.13;72.31
74403;BME280;62837;51.082;13.744;2023-01-15T04:57:39;98647.38;;;10.09;72.26
74403;BME280;62837;51.082;13.744;2023-01-15T05:00:12;98642.30;;;10.06;72.27
74403;BME280;62837;51.082;13.744;2023-01-15T05:02:44;98635.05;;;10.03;72.39
74403;BME280;62837;51.082;13.744;2023-01-15T05:05:15;98634.89;;;9.99;72.57
74403;BME280;62837;51.082;13.744;2023-01-15T05:07:46;98632.40;;;9.97;72.47
74403;BME280;62837;51.082;13.744;2023-01-15T05:10:16;98628.20;;;9.95;72.62
74403;BME280;62837;51.082;13.744;2023-01-15T05:12:47;98622.19;;;9.93;72.80
74403;BME280;62837;51.082;13.744;2023-01-15T05:15:18;98624.78;;;9.91;72.87
74403;BME280;62837;51.082;13.744;2023-01-15T05:17:49;98626.63;;;9.90;72.75
74403;BME280;62837;51.082;13.744;2023-01-15T05:20:19;98634.66;;;9.89;73.00
74403;BME280;62837;51.082;13.744;2023-01-15T05:22:50;98631.98;;;9.88;72.93
74403;BME280;62837;51.082;13.744;2023-01-15T05:25:21;98633.90;;;9.88;73.22
74403;BME280;62837;51.082;13.744;2023-01-15T05:27:52;98633.19;;;9.88;73.25
74403;BME280;62837;51.082;13.744;2023-01-15T05:30:23;98623.42;;;9.87;73.05
74403;BME280;62837;51.082;13.744;2023-01-15T05:32:54;98626.12;;;9.86;73.20
74403;BME280;62837;51.082;13.744;2023-01-15T05:35:24;98622.56;;;9.86;73.43
74403;BME280;62837;51.082;13.744;2023-01-15T05:37:55;98617.55;;;9.85;73.31
74403;BME280;62837;51.082;13.744;2023-01-15T05:40:26;98616.39;;;9.85;73.40
74403;BME280;62837;51.082;13.744;2023-01-15T05:42:56;98620.52;;;9.83;73.74
74403;BME280;62837;51.082;13.744;2023-01-15T05:45:27;98615.42;;;9.81;73.49
74403;BME280;62837;51.082;13.744;2023-01-15T05:47:58;98620.92;;;9.81;73.62
74403;BME280;62837;51.082;13.744;2023-01-15T05:50:28;98621.34;;;9.80;73.48
74403;BME280;62837;51.082;13.744;2023-01-15T05:52:59;98616.38;;;9.81;73.42
74403;BME280;62837;51.082;13.744;2023-01-15T05:55:30;98623.84;;;9.81;73.43
74403;BME280;62837;51.082;13.744;2023-01-15T05:58:00;98629.20;;;9.82;73.40
74403;BME280;62837;51.082;13.744;2023-01-15T06:00:31;98619.54;;;9.83;73.35
74403;BME280;62837;51.082;13.744;2023-01-15T06:03:02;98616.52;;;9.82;73.45
74403;BME280;62837;51.082;13.744;2023-01-15T06:05:32;98613.88;;;9.83;73.30
74403;BME280;62837;51.082;13.744;2023-01-15T06:08:03;98617.77;;;9.83;73.45
74403;BME280;62837;51.082;13.744;2023-01-15T06:10:34;98615.20;;;9.83;73.43
74403;BME280;62837;51.082;13.744;2023-01-15T06:13:05;98612.39;;;9.84;73.40
74403;BME280;62837;51.082;13.744;2023-01-15T06:15:36;98615.02;;;9.84;73.40
74403;BME280;62837;51.082;13.744;2023-01-15T06:18:06;98612.51;;;9.83;73.36
74403;BME280;62837;51.082;13.744;2023-01-15T06:20:38;98609.77;;;9.83;73.40
74403;BME280;62837;51.082;13.744;2023-01-15T06:23:09;98604.58;;;9.85;73.30
74403;BME280;62837;51.082;13.744;2023-01-15T06:25:39;98597.86;;;9.86;73.44
74403;BME280;62837;51.082;13.744;2023-01-15T06:28:11;98595.38;;;9.87;73.39
74403;BME280;62837;51.082;13.744;2023-01-15T06:30:41;98596.23;;;9.89;73.08
74403;BME280;62837;51.082;13.744;2023-01-15T06:33:12;98596.83;;;9.90;73.18
74403;BME280;62837;51.082;13.744;2023-01-15T06:35:43;98634.26;;;9.94;72.91
74403;BME280;62837;51.082;13.744;2023-01-15T06:38:14;98686.17;;;10.04;73.86
74403;BME280;62837;51.082;13.744;2023-01-15T06:40:44;98697.40;;;10.05;75.74
74403;BME280;62837;51.082;13.744;2023-01-15T06:43:15;98710.90;;;9.99;76.03
74403;BME280;62837;51.082;13.744;2023-01-15T06:46:03;98714.80;;;9.90;77.40
74403;BME280;62837;51.082;13.744;2023-01-15T06:48:52;98742.14;;;9.78;77.74
74403;BME280;62837;51.082;13.744;2023-01-15T06:51:23;98750.54;;;9.70;76.35
74403;BME280;62837;51.082;13.744;2023-01-15T06:53:54;98764.27;;;9.61;74.99
74403;BME280;62837;51.082;13.744;2023-01-15T06:56:24;98788.34;;;9.51;74.63
74403;BME280;62837;51.082;13.744;2023-01-15T06:58:55;98812.58;;;9.38;73.87
74403;BME280;62837;51.082;13.744;2023-01-15T07:01:26;98816.44;;;9.24;73.75
74403;BME280;62837;51.082;13.744;2023-01-15T07:03:59;98816.20;;;9.09;73.94
74403;BME280;62837;51.082;13.744;2023-01-15T07:06:30;98820.32;;;8.95;73.84
74403;BME280;62837;51.082;13.744;2023-01-15T07:09:01;98832.90;;;8.77;73.55
74403;BME280;62837;51.082;13.744;2023-01-15T07:11:32;98830.71;;;8.60;73.75
74403;BME280;62837;51.082;13.744;2023-01-15T07:14:03;98830.58;;;8.47;74.00
74403;BME280;62837;51.082;13.744;2023-01-15T07:16:36;98831.85;;;8.36;73.65
74403;BME280;62837;51.082;13.744;2023-01-15T07:19:07;98844.69;;;8.27;73.91
74403;BME280;62837;51.082;13.744;2023-01-15T07:21:38;98852.61;;;8.18;73.90
74403;BME280;62837;51.082;13.744;2023-01-15T07:24:10;98842.73;;;8.13;74.00
74403;BME280;62837;51.082;13.744;2023-01-15T07:26:42;98844.16;;;8.09;74.13
74403;BME280;62837;51.082;13.744;2023-01-15T07:29:14;98850.87;;;8.03;74.32
74403;BME280;62837;51.082;13.744;2023-01-15T07:31:45;98851.18;;;7.97;74.26
74403;BME280;62837;51.082;13.744;2023-01-15T07:34:16;98859.44;;;7.93;74.44
74403;BME280;62837;51.082;13.744;2023-01-15T07:36:46;98858.81;;;7.88;74.32
74403;BME280;62837;51.082;13.744;2023-01-15T07:39:17;98869.33;;;7.84;74.48
74403;BME280;62837;51.082;13.744;2023-01-15T07:41:48;98871.41;;;7.82;74.81
74403;BME280;62837;51.082;13.744;2023-01-15T07:44:36;98895.51;;;7.81;74.79
74403;BME280;62837;51.082;13.744;2023-01-15T07:47:26;98900.98;;;7.80;74.59
74403;BME280;62837;51.082;13.744;2023-01-15T07:50:16;98903.77;;;7.79;74.96
74403;BME280;62837;51.082;13.744;2023-01-15T07:52:47;98919.85;;;7.79;75.04
74403;BME280;62837;51.082;13.744;2023-01-15T07:55:21;98926.42;;;7.79;74.97
74403;BME280;62837;51.082;13.744;2023-01-15T07:57:52;98933.77;;;7.78;74.94
74403;BME280;62837;51.082;13.744;2023-01-15T08:00:24;98944.36;;;7.78;74.89
74403;BME280;62837;51.082;13.744;2023-01-15T08:02:55;98941.53;;;7.76;75.04
74403;BME280;62837;51.082;13.744;2023-01-15T08:05:25;98937.86;;;7.74;75.32
74403;BME280;62837;51.082;13.744;2023-01-15T08:07:56;98943.89;;;7.71;75.52
74403;BME280;62837;51.082;13.744;2023-01-15T08:10:27;98946.63;;;7.67;75.40
74403;BME280;62837;51.082;13.744;2023-01-15T08:12:58;98951.73;;;7.64;75.76
74403;BME280;62837;51.082;13.744;2023-01-15T08:15:46;98953.42;;;7.61;75.73
74403;BME280;62837;51.082;13.744;2023-01-15T08:18:17;98963.48;;;7.57;76.09
74403;BME280;62837;51.082;13.744;2023-01-15T08:20:48;98963.22;;;7.47;76.36
74403;BME280;62837;51.082;13.744;2023-01-15T08:23:18;98957.59;;;7.39;76.38
74403;BME280;62837;51.082;13.744;2023-01-15T08:25:49;98962.45;;;7.34;76.64
74403;BME280;62837;51.082;13.744;2023-01-15T08:28:20;98973.92;;;7.32;76.69
74403;BME280;62837;51.082;13.744;2023-01-15T08:30:51;98980.16;;;7.27;76.93
74403;BME280;62837;51.082;13.744;2023-01-15T08:33:21;98982.83;;;7.20;76.93
74403;BME280;62837;51.082;13.744;2023-01-15T08:35:52;98991.68;;;7.15;77.15
74403;BME280;62837;51.082;13.744;2023-01-15T08:38:23;98979.75;;;7.10;77.04
74403;BME280;62837;51.082;13.744;2023-01-15T08:40:55;98977.56;;;7.09;77.27
74403;BME280;62837;51.082;13.744;2023-01-15T08:43:29;98967.55;;;7.09;77.94
74403;BME280;62837;51.082;13.744;2023-01-15T08:46:02;98961.12;;;7.10;77.87
74403;BME280;62837;51.082;13.744;2023-01-15T08:48:32;98955.61;;;7.14;77.40
74403;BME280;62837;51.082;13.744;2023-01-15T08:51:06;98948.72;;;7.16;76.96
74403;BME280;62837;51.082;13.744;2023-01-15T08:53:37;98949.98;;;7.20;77.20
74403;BME280;62837;51.082;13.744;2023-01-15T08:56:16;98955.05;;;7.24;77.05
74403;BME280;62837;51.082;13.744;2023-01-15T08:58:48;98948.88;;;7.30;77.28
74403;BME280;62837;51.082;13.744;2023-01-15T09:01:18;98979.35;;;7.37;76.82
74403;BME280;62837;51.082;13.744;2023-01-15T09:03:49;98989.35;;;7.39;76.73
74403;BME280;62837;51.082;13.744;2023-01-15T09:06:20;98995.85;;;7.38;76.83
74403;BME280;62837;51.082;13.744;2023-01-15T09:08:51;99002.26;;;7.38;77.05
74403;BME280;62837;51.082;13.744;2023-01-15T09:11:21;99000.06;;;7.38;76.87
74403;BME280;62837;51.082;13.744;2023-01-15T09:13:52;99001.39;;;7.36;76.94
74403;BME280;62837;51.082;13.744;2023-01-15T09:16:23;98997.17;;;7.30;76.93
74403;BME280;62837;51.082;13.744;2023-01-15T09:18:56;98988.91;;;7.23;77.11
74403;BME280;62837;51.082;13.744;2023-01-15T09:21:26;98984.68;;;7.19;77.19
74403;BME280;62837;51.082;13.744;2023-01-15T09:23:57;98994.55;;;7.21;77.07
74403;BME280;62837;51.082;13.744;2023-01-15T09:26:30;99001.58;;;7.23;77.18
74403;BME280;62837;51.082;13.744;2023-01-15T09:29:02;99005.86;;;7.27;77.31
74403;BME280;62837;51.082;13.744;2023-01-15T09:31:33;98998.76;;;7.30;77.30
74403;BME280;62837;51.082;13.744;2023-01-15T09:34:04;98997.98;;;7.24;77.19
74403;BME280;62837;51.082;13.744;2023-01-15T09:36:35;99003.55;;;7.17;77.37
74403;BME280;62837;51.082;13.744;2023-01-15T09:39:10;99013.33;;;7.14;77.61
74403;BME280;62837;51.082;13.744;2023-01-15T09:41:55;99004.52;;;7.08;77.95
74403;BME280;62837;51.082;13.744;2023-01-15T09:44:48;98997.02;;;7.08;78.05
74403;BME280;62837;51.082;13.744;2023-01-15T09:47:26;99001.99;;;7.09;77.73
74403;BME280;62837;51.082;13.744;2023-01-15T09:50:13;99006.54;;;7.10;77.97
74403;BME280;62837;51.082;13.744;2023-01-15T09:56:02;99007.64;;;7.10;77.86
74403;BME280;62837;51.082;13.744;2023-01-15T09:58:36;99008.71;;;7.08;77.68
74403;BME280;62837;51.082;13.744;2023-01-15T10:01:15;98993.91;;;7.09;77.68
74403;BME280;62837;51.082;13.744;2023-01-15T10:03:51;98982.45;;;7.11;77.59
74403;BME280;62837;51.082;13.744;2023-01-15T10:06:29;98979.48;;;7.14;77.56
74403;BME280;62837;51.082;13.744;2023-01-15T10:09:08;98978.67;;;7.17;77.46
74403;BME280;62837;51.082;13.744;2023-01-15T10:11:44;98972.16;;;7.16;77.29
74403;BME280;62837;51.082;13.744;2023-01-15T10:14:41;98966.77;;;7.15;77.17
74403;BME280;62837;51.082;13.744;2023-01-15T10:17:20;98975.94;;;7.17;77.06
74403;BME280;62837;51.082;13.744;2023-01-15T10:20:13;98994.04;;;7.18;77.05
74403;BME280;62837;51.082;13.744;2023-01-15T10:22:54;98999.86;;;7.14;77.02
74403;BME280;62837;51.082;13.744;2023-01-15T10:25:32;99009.34;;;7.11;77.17
74403;BME280;62837;51.082;13.744;2023-01-15T10:28:14;99000.63;;;7.06;77.47
74403;BME280;62837;51.082;13.744;2023-01-15T10:30:52;99014.80;;;7.11;77.03
74403;BME280;62837;51.082;13.744;2023-01-15T10:33:40;99017.27;;;7.12;77.26
74403;BME280;62837;51.082;13.744;2023-01-15T10:36:15;99015.95;;;7.14;77.50
74403;BME280;62837;51.082;13.744;2023-01-15T10:38:55;99011.42;;;7.16;77.33
74403;BME280;62837;51.082;13.744;2023-01-15T10:41:39;99015.14;;;7.19;77.00
74403;BME280;62837;51.082;13.744;2023-01-15T10:44:16;99019.73;;;7.21;77.12
74403;BME280;62837;51.082;13.744;2023-01-15T10:46:52;99025.92;;;7.23;77.18
74403;BME280;62837;51.082;13.744;2023-01-15T10:49:28;99021.60;;;7.23;76.62
74403;BME280;62837;51.082;13.744;2023-01-15T10:52:04;99026.80;;;7.24;76.41
74403;BME280;62837;51.082;13.744;2023-01-15T10:54:39;99033.40;;;7.23;76.40
74403;BME280;62837;51.082;13.744;2023-01-15T10:57:15;99037.55;;;7.23;75.79
74403;BME280;62837;51.082;13.744;2023-01-15T10:59:49;99042.44;;;7.21;75.08
74403;BME280;62837;51.082;13.744;2023-01-15T11:02:26;99052.33;;;7.19;73.52
74403;BME280;62837;51.082;13.744;2023-01-15T11:04:58;99054.60;;;7.12;72.44
74403;BME280;62837;51.082;13.744;2023-01-15T11:07:36;99056.61;;;7.07;71.87
74403;BME280;62837;51.082;13.744;2023-01-15T11:10:29;99052.66;;;7.05;71.91
74403;BME280;62837;51.082;13.744;2023-01-15T11:13:17;99049.92;;;7.04;72.01
74403;BME280;62837;51.082;13.744;2023-01-15T11:16:14;99044.14;;;7.05;72.42
74403;BME280;62837;51.082;13.744;2023-01-15T11:19:05;99048.99;;;7.04;71.84
74403;BME280;62837;51.082;13.744;2023-01-15T11:21:54;99045.71;;;7.03;71.92
74403;BME280;62837;51.082;13.744;2023-01-15T11:24:26;99043.64;;;7.00;71.40
74403;BME280;62837;51.082;13.744;2023-01-15T11:26:57;99040.84;;;6.97;70.92
74403;BME280;62837;51.082;13.744;2023-01-15T11:29:32;99041.66;;;6.97;70.99
74403;BME280;62837;51.082;13.744;2023-01-15T11:32:15;99032.02;;;6.95;71.10
74403;BME280;62837;51.082;13.744;2023-01-15T11:34:55;99033.41;;;6.96;70.83
74403;BME280;62837;51.082;13.744;2023-01-15T11:37:27;99034.71;;;6.99;71.23
74403;BME280;62837;51.082;13.744;2023-01-15T11:39:59;99030.71;;;6.99;71.04
74403;BME280;62837;51.082;13.744;2023-01-15T11:42:37;99033.73;;;7.00;70.97
74403;BME280;62837;51.082;13.744;2023-01-15T11:45:26;99038.06;;;7.03;71.32
74403;BME280;62837;51.082;13.744;2023-01-15T11:48:16;99044.13;;;7.04;71.21
74403;BME280;62837;51.082;13.744;2023-01-15T11:51:08;99048.89;;;7.05;71.51
74403;BME280;62837;51.082;13.744;2023-01-15T11:53:42;99047.41;;;7.04;70.92
74403;BME280;62837;51.082;13.744;2023-01-15T11:56:16;99050.96;;;7.04;71.34
74403;BME280;62837;51.082;13.744;2023-01-15T11:58:50;99044.15;;;7.06;71.21
74403;BME280;62837;51.082;13.744;2023-01-15T12:01:25;99032.60;;;7.08;71.08
74403;BME280;62837;51.082;13.744;2023-01-15T12:03:59;99034.15;;;7.10;71.30
74403;BME280;62837;51.082;13.744;2023-01-15T12:06:32;99037.88;;;7.12;70.44
74403;BME280;62837;51.082;13.744;2023-01-15T12:09:14;99041.42;;;7.15;70.74
74403;BME280;62837;51.082;13.744;2023-01-15T12:12:00;99051.23;;;7.20;70.98
74403;BME280;62837;51.082;13.744;2023-01-15T12:14:43;99055.73;;;7.25;70.73
74403;BME280;62837;51.082;13.744;2023-01-15T12:17:30;99052.72;;;7.32;70.29
74403;BME280;62837;51.082;13.744;2023-01-15T12:20:14;99052.80;;;7.37;70.26
74403;BME280;62837;51.082;13.744;2023-01-15T12:22:57;99048.97;;;7.41;69.88
74403;BME280;62837;51.082;13.744;2023-01-15T12:25:37;99038.86;;;7.46;69.88
74403;BME280;62837;51.082;13.744;2023-01-15T12:28:17;99037.39;;;7.50;69.96
74403;BME280;62837;51.082;13.744;2023-01-15T12:30:59;99036.51;;;7.52;69.44
74403;BME280;62837;51.082;13.744;2023-01-15T12:33:42;99027.27;;;7.48;69.54
74403;BME280;62837;51.082;13.744;2023-01-15T12:36:18;99030.23;;;7.52;69.62
74403;BME280;62837;51.082;13.744;2023-01-15T12:38:55;99028.36;;;7.54;69.44
74403;BME280;62837;51.082;13.744;2023-01-15T12:41:30;99028.36;;;7.57;69.45
74403;BME280;62837;51.082;13.744;2023-01-15T12:44:20;99031.77;;;7.61;68.89
74403;BME280;62837;51.082;13.744;2023-01-15T12:47:18;99019.79;;;7.62;68.55
74403;BME280;62837;51.082;13.744;2023-01-15T12:49:54;99028.91;;;7.64;68.74
74403;BME280;62837;51.082;13.744;2023-01-15T12:52:32;99021.37;;;7.68;68.05
74403;BME280;62837;51.082;13.744;2023-01-15T12:55:12;99014.75;;;7.71;67.98
74403;BME280;62837;51.082;13.744;2023-01-15T12:57:45;99002.83;;;7.68;67.44
74403;BME280;62837;51.082;13.744;2023-01-15T13:00:20;99023.29;;;7.72;67.17
74403;BME280;62837;51.082;13.744;2023-01-15T13:03:18;99033.90;;;7.69;67.18
74403;BME280;62837;51.082;13.744;2023-01-15T13:05:52;99036.85;;;7.67;67.69
74403;BME280;62837;51.082;13.744;2023-01-15T13:08:30;99036.69;;;7.64;66.91
74403;BME280;62837;51.082;13.744;2023-01-15T13:11:02;99049.17;;;7.61;67.12
74403;BME280;62837;51.082;13.744;2023-01-15T13:13:37;99055.72;;;7.58;66.78
74403;BME280;62837;51.082;13.744;2023-01-15T13:16:17;99058.83;;;7.54;66.93
74403;BME280;62837;51.082;13.744;2023-01-15T13:18:57;99058.56;;;7.52;67.04
74403;BME280;62837;51.082;13.744;2023-01-15T13:21:36;99037.77;;;7.50;67.23
74403;BME280;62837;51.082;13.744;2023-01-15T13:24:22;99056.74;;;7.52;67.42
74403;BME280;62837;51.082;13.744;2023-01-15T13:27:08;99048.77;;;7.55;67.84
74403;BME280;62837;51.082;13.744;2023-01-15T13:29:54;99031.33;;;7.55;67.51
74403;BME280;62837;51.082;13.744;2023-01-15T13:32:33;99038.21;;;7.63;67.34
74403;BME280;62837;51.082;13.744;2023-01-15T13:35:13;99042.65;;;7.65;67.48
74403;BME280;62837;51.082;13.744;2023-01-15T13:37:50;99058.42;;;7.67;66.96
74403;BME280;62837;51.082;13.744;2023-01-15T13:40:24;99065.96;;;7.66;66.43
74403;BME280;62837;51.082;13.744;2023-01-15T13:42:57;99066.61;;;7.65;66.25
74403;BME280;62837;51.082;13.744;2023-01-15T13:45:34;99070.45;;;7.63;65.51
74403;BME280;62837;51.082;13.744;2023-01-15T13:48:11;99086.52;;;7.57;65.06